createdAt,value
2019-06-07T00:01:54.294Z,18.80
2019-06-07T00:04:24.833Z,18.70
2019-06-07T00:06:58.860Z,18.70
2019-06-07T00:09:29.481Z,18.60
2019-06-07T00:12:00.347Z,18.50
2019-06-07T00:14:30.992Z,18.60
2019-06-07T00:17:01.652Z,18.50
2019-06-07T00:19:33.083Z,18.50
2019-06-07T00:22:17.682Z,18.40
2019-06-07T00:24:35.993Z,18.40
2019-06-07T00:27:06.652Z,18.40
2019-06-07T00:29:38.378Z,18.30
2019-06-07T00:32:09.270Z,18.60
2019-06-07T00:34:40.334Z,18.30
2019-06-07T00:37:12.307Z,18.30
2019-06-07T00:39:43.416Z,18.20
2019-06-07T00:42:18.608Z,18.10
2019-06-07T00:44:50.170Z,18.00
2019-06-07T00:47:23.628Z,18.20
2019-06-07T00:49:52.180Z,18.20
2019-06-07T00:53:12.842Z,18.10
2019-06-07T00:54:55.495Z,18.20
2019-06-07T00:57:27.743Z,18.20
2019-06-07T01:00:02.102Z,18.10
2019-06-07T01:02:34.758Z,18.10
2019-06-07T01:05:07.896Z,18.10
2019-06-07T01:07:39.137Z,18.20
2019-06-07T01:10:16.156Z,18.10
2019-06-07T01:12:46.370Z,18.10
2019-06-07T01:15:22.227Z,18.10
2019-06-07T01:18:33.214Z,18.10
2019-06-07T01:20:26.663Z,18.10
2019-06-07T01:22:56.981Z,18.00
2019-06-07T01:25:29.061Z,18.10
2019-06-07T01:27:59.936Z,18.10
2019-06-07T01:36:19.565Z,18.30
2019-06-07T01:38:50.688Z,18.20
2019-06-07T01:41:24.826Z,18.20
2019-06-07T01:43:54.525Z,18.10
2019-06-07T01:46:26.704Z,18.20
2019-06-07T01:48:58.619Z,18.20
2019-06-07T01:51:30.902Z,18.10
2019-06-07T01:54:48.739Z,18.10
2019-06-07T01:56:34.080Z,18.10
2019-06-07T01:59:04.762Z,18.10
2019-06-07T02:01:35.624Z,18.10
2019-06-07T02:04:07.117Z,18.10
2019-06-07T02:06:37.719Z,18.00
2019-06-07T02:09:09.101Z,18.00
2019-06-07T02:11:41.730Z,18.00
2019-06-07T02:14:12.795Z,18.00
2019-06-07T02:16:45.231Z,18.00
2019-06-07T02:19:16.276Z,17.90
2019-06-07T02:21:50.686Z,18.10
2019-06-07T02:24:24.922Z,18.10
2019-06-07T02:26:54.315Z,18.10
2019-06-07T02:29:25.510Z,18.10
2019-06-07T02:31:57.583Z,18.10
2019-06-07T02:34:38.388Z,18.10
2019-06-07T02:37:03.621Z,18.10
2019-06-07T02:39:40.509Z,18.20
2019-06-07T02:42:10.855Z,18.20
2019-06-07T02:44:42.403Z,18.20
2019-06-07T02:47:12.969Z,18.20
2019-06-07T02:49:44.614Z,18.20
2019-06-07T02:52:15.832Z,18.20
2019-06-07T02:54:46.457Z,18.20
2019-06-07T02:57:17.492Z,18.20
2019-06-07T03:00:07.091Z,18.10
2019-06-07T03:02:21.898Z,18.20
2019-06-07T03:04:52.658Z,18.20
2019-06-07T03:07:27.699Z,18.10
2019-06-07T03:09:58.209Z,18.40
2019-06-07T03:12:33.565Z,18.00
2019-06-07T03:15:06.995Z,18.30
2019-06-07T03:17:46.734Z,18.20
2019-06-07T03:20:19.031Z,18.10
2019-06-07T03:22:51.773Z,18.20
2019-06-07T03:25:23.293Z,18.20
2019-06-07T03:27:53.928Z,18.20
2019-06-07T03:31:00.389Z,18.10
2019-06-07T03:32:56.863Z,18.10
2019-06-07T03:35:30.998Z,18.20
2019-06-07T03:41:00.831Z,18.20
2019-06-07T03:43:35.019Z,18.40
2019-06-07T03:46:05.666Z,18.30
2019-06-07T03:48:40.997Z,18.40
2019-06-07T03:51:24.824Z,18.20
2019-06-07T03:53:47.868Z,18.40
2019-06-07T03:56:18.433Z,18.40
2019-06-07T03:58:50.434Z,18.40
2019-06-07T04:01:21.320Z,18.40
2019-06-07T04:03:59.242Z,18.40
2019-06-07T04:06:32.498Z,18.50
2019-06-07T04:09:06.932Z,18.40
2019-06-07T04:11:39.478Z,18.20
2019-06-07T04:14:09.956Z,18.40
2019-06-07T04:16:44.561Z,18.40
2019-06-07T04:19:14.563Z,18.50
2019-06-07T04:21:45.062Z,18.50
2019-06-07T04:24:15.625Z,18.50
2019-06-07T04:26:46.840Z,18.50
2019-06-07T04:29:41.582Z,18.30
2019-06-07T04:31:49.830Z,18.50
2019-06-07T04:34:20.478Z,18.60
2019-06-07T04:36:59.154Z,18.60
2019-06-07T04:39:25.995Z,18.60
2019-06-07T04:41:58.968Z,18.50
2019-06-07T04:44:31.119Z,18.50
2019-06-07T04:47:06.598Z,18.70
2019-06-07T04:49:43.435Z,18.70
2019-06-07T04:52:13.763Z,18.80
2019-06-07T04:54:45.959Z,18.70
2019-06-07T04:57:16.690Z,18.80
2019-06-07T05:00:12.129Z,18.80
2019-06-07T05:02:20.056Z,18.80
2019-06-07T05:04:50.559Z,18.80
2019-06-07T05:07:21.106Z,18.80
2019-06-07T05:09:51.570Z,18.80
2019-06-07T05:12:22.206Z,18.70
2019-06-07T05:14:54.209Z,18.80
2019-06-07T05:17:24.836Z,18.60
2019-06-07T05:19:55.361Z,18.70
2019-06-07T05:22:25.952Z,19.00
2019-06-07T05:24:56.451Z,18.50
2019-06-07T05:27:27.115Z,18.50
2019-06-07T05:30:13.284Z,18.20
2019-06-07T05:32:32.906Z,18.10
2019-06-07T05:35:03.019Z,17.90
2019-06-07T05:37:34.300Z,17.80
2019-06-07T05:40:09.321Z,17.90
2019-06-07T05:42:46.645Z,17.80
2019-06-07T05:45:22.081Z,17.70
2019-06-07T05:47:54.958Z,17.60
2019-06-07T05:50:39.019Z,17.60
2019-06-07T05:53:00.076Z,17.70
2019-06-07T05:55:30.718Z,17.70
2019-06-07T05:58:01.366Z,17.20
2019-06-07T06:00:34.700Z,17.50
2019-06-07T06:03:06.077Z,17.30
2019-06-07T06:05:42.358Z,17.70
2019-06-07T06:08:10.126Z,17.40
2019-06-07T06:10:46.243Z,17.30
2019-06-07T06:13:13.078Z,17.20
2019-06-07T06:15:56.436Z,17.30
2019-06-07T06:18:16.744Z,17.30
2019-06-07T06:21:09.821Z,17.50
2019-06-07T06:23:19.664Z,17.40
2019-06-07T06:25:56.624Z,17.50
2019-06-07T06:28:22.642Z,17.60
2019-06-07T06:30:53.360Z,17.70
2019-06-07T06:33:33.507Z,18.00
2019-06-07T06:35:56.269Z,18.10
2019-06-07T06:38:27.780Z,18.00
2019-06-07T06:41:14.384Z,18.10
2019-06-07T06:43:30.683Z,18.30
2019-06-07T06:46:01.457Z,18.40
2019-06-07T06:48:33.335Z,18.50
2019-06-07T06:51:04.590Z,18.70
2019-06-07T06:53:40.425Z,19.00
2019-06-07T06:56:11.405Z,19.60
2019-06-07T06:59:24.645Z,19.40
2019-06-07T07:01:14.635Z,20.00
2019-06-07T07:04:05.242Z,20.20
2019-06-07T07:06:26.469Z,20.30
2019-06-07T07:08:55.109Z,20.60
2019-06-07T07:11:25.721Z,21.10
2019-06-07T07:13:57.262Z,21.40
2019-06-07T07:16:27.840Z,22.70
2019-06-07T07:18:58.796Z,24.40
2019-06-07T07:21:29.433Z,24.40
2019-06-07T07:24:20.539Z,24.60
2019-06-07T07:26:32.767Z,24.90
2019-06-07T07:29:03.335Z,25.80
2019-06-07T07:31:33.974Z,25.80
2019-06-07T07:36:39.752Z,25.80
2019-06-07T07:39:10.408Z,26.70
2019-06-07T07:42:04.756Z,27.60
2019-06-07T07:44:14.099Z,28.40
2019-06-07T07:46:46.666Z,28.50
2019-06-07T07:49:22.452Z,28.80
2019-06-07T07:51:57.065Z,29.40
2019-06-07T07:54:25.572Z,29.90
2019-06-07T07:56:57.377Z,30.10
2019-06-07T07:59:41.926Z,30.20
2019-06-07T08:02:00.582Z,30.20
2019-06-07T08:05:12.957Z,30.50
2019-06-07T08:07:04.344Z,30.70
2019-06-07T08:09:34.956Z,30.90
2019-06-07T08:12:05.803Z,30.90
2019-06-07T08:14:36.378Z,31.00
2019-06-07T08:17:07.096Z,31.10
2019-06-07T08:19:37.494Z,30.90
2019-06-07T08:22:08.052Z,31.00
2019-06-07T08:24:38.584Z,30.90
2019-06-07T08:27:25.439Z,30.80
2019-06-07T08:29:45.536Z,30.90
2019-06-07T08:32:14.466Z,31.10
2019-06-07T08:34:45.939Z,31.50
2019-06-07T08:37:16.653Z,31.50
2019-06-07T08:39:50.358Z,31.30
2019-06-07T08:42:36.028Z,31.40
2019-06-07T08:44:57.194Z,31.40
2019-06-07T08:47:26.158Z,31.30
2019-06-07T08:50:08.936Z,31.60
2019-06-07T08:52:40.659Z,31.50
2019-06-07T08:55:11.704Z,31.60
2019-06-07T08:57:42.305Z,31.80
2019-06-07T09:00:45.228Z,32.10
2019-06-07T09:02:46.678Z,32.10
2019-06-07T09:05:19.517Z,31.90
2019-06-07T09:08:14.759Z,32.10
2019-06-07T09:10:22.338Z,31.90
2019-06-07T09:12:57.909Z,31.80
2019-06-07T09:15:25.455Z,32.20
2019-06-07T09:18:35.082Z,32.80
2019-06-07T09:20:41.951Z,33.20
2019-06-07T09:23:17.210Z,32.80
2019-06-07T09:25:57.070Z,33.00
2019-06-07T09:28:20.171Z,33.00
2019-06-07T09:30:50.908Z,33.00
2019-06-07T09:33:21.635Z,33.30
2019-06-07T09:35:52.574Z,32.90
2019-06-07T09:38:26.101Z,32.50
2019-06-07T09:40:57.393Z,32.50
2019-06-07T09:46:02.076Z,32.60
2019-06-07T09:49:09.746Z,32.20
2019-06-07T09:51:16.949Z,32.60
2019-06-07T09:53:37.884Z,32.80
2019-06-07T09:56:12.083Z,33.10
2019-06-07T09:58:52.658Z,33.30
2019-06-07T10:01:14.899Z,33.40
2019-06-07T10:03:45.408Z,33.60
2019-06-07T10:06:16.061Z,33.60
2019-06-07T10:10:04.758Z,33.10
2019-06-07T10:11:18.929Z,33.20
2019-06-07T10:13:49.571Z,33.40
2019-06-07T10:16:20.112Z,33.20
2019-06-07T10:18:50.772Z,33.30
2019-06-07T10:21:22.258Z,33.30
2019-06-07T10:23:52.903Z,33.50
2019-06-07T10:26:23.507Z,32.70
2019-06-07T10:28:54.080Z,32.70
2019-06-07T10:31:24.706Z,32.60
2019-06-07T10:33:55.419Z,32.40
2019-06-07T10:36:25.946Z,32.60
2019-06-07T10:38:56.601Z,32.60
2019-06-07T10:41:27.223Z,32.50
2019-06-07T10:43:57.662Z,32.80
2019-06-07T10:46:28.034Z,32.90
2019-06-07T10:48:58.568Z,32.60
2019-06-07T10:51:29.913Z,32.60
2019-06-07T10:54:06.081Z,32.90
2019-06-07T10:56:33.042Z,33.90
2019-06-07T10:59:05.105Z,33.90
2019-06-07T11:01:35.907Z,33.90
2019-06-07T11:04:07.786Z,34.00
2019-06-07T11:06:39.107Z,34.00
2019-06-07T11:09:10.083Z,33.50
2019-06-07T11:11:40.649Z,33.40
2019-06-07T11:14:12.742Z,32.80
2019-06-07T11:16:43.376Z,32.60
2019-06-07T11:19:17.379Z,32.90
2019-06-07T11:21:46.225Z,32.90
2019-06-07T11:24:23.686Z,32.20
2019-06-07T11:26:50.097Z,32.20
2019-06-07T11:29:20.749Z,31.60
2019-06-07T11:31:51.363Z,30.90
2019-06-07T11:34:22.007Z,30.30
2019-06-07T11:36:52.560Z,30.00
2019-06-07T11:39:23.284Z,29.80
2019-06-07T11:41:53.900Z,29.70
2019-06-07T11:44:25.402Z,29.50
2019-06-07T11:46:56.124Z,29.30
2019-06-07T11:49:26.797Z,29.20
2019-06-07T11:51:58.739Z,29.00
2019-06-07T11:54:29.455Z,29.00
2019-06-07T11:57:00.215Z,29.00
2019-06-07T11:59:31.263Z,29.30
2019-06-07T12:02:01.905Z,29.80
2019-06-07T12:04:35.088Z,29.70
2019-06-07T12:07:04.802Z,30.20
2019-06-07T12:09:35.697Z,30.60
2019-06-07T12:12:06.366Z,31.10
2019-06-07T12:14:37.404Z,31.40
2019-06-07T12:17:09.002Z,31.70
2019-06-07T12:19:39.806Z,31.80
2019-06-07T12:22:11.643Z,32.30
2019-06-07T12:24:42.937Z,32.20
2019-06-07T12:27:14.758Z,32.20
2019-06-07T12:29:45.519Z,32.20
2019-06-07T12:32:17.429Z,32.10
2019-06-07T12:34:48.061Z,31.80
2019-06-07T12:37:21.012Z,31.70
2019-06-07T12:39:50.958Z,31.40
2019-06-07T12:42:22.689Z,31.10
2019-06-07T12:44:53.479Z,30.80
2019-06-07T12:47:25.351Z,30.60
2019-06-07T12:49:56.017Z,30.50
2019-06-07T12:52:27.524Z,30.50
2019-06-07T12:54:58.124Z,30.40
2019-06-07T12:57:28.682Z,30.10
2019-06-07T12:59:59.610Z,30.00
2019-06-07T13:02:30.138Z,29.90
2019-06-07T13:05:04.527Z,29.60
2019-06-07T13:07:33.091Z,29.50
2019-06-07T13:10:04.972Z,29.50
2019-06-07T13:12:35.442Z,29.40
2019-06-07T13:15:10.515Z,29.40
2019-06-07T13:17:41.154Z,29.30
2019-06-07T13:20:12.684Z,29.40
2019-06-07T13:22:43.333Z,29.40
2019-06-07T13:25:16.318Z,29.10
2019-06-07T13:27:47.003Z,29.40
2019-06-07T13:30:21.661Z,29.30
2019-06-07T13:32:53.449Z,29.20
2019-06-07T13:35:25.347Z,29.20
2019-06-07T13:37:59.525Z,29.20
2019-06-07T13:40:29.019Z,29.20
2019-06-07T13:42:59.664Z,29.20
2019-06-07T13:45:30.252Z,29.10
2019-06-07T13:48:00.754Z,29.10
2019-06-07T13:50:31.245Z,29.40
2019-06-07T13:56:26.890Z,29.10
2019-06-07T13:58:59.765Z,28.90
2019-06-07T14:01:30.370Z,29.00
2019-06-07T14:04:00.900Z,28.80
2019-06-07T14:06:31.432Z,28.70
2019-06-07T14:09:02.068Z,28.50
2019-06-07T14:11:49.520Z,28.50
2019-06-07T14:14:05.353Z,28.50
2019-06-07T14:16:35.976Z,28.50
2019-06-07T14:19:06.596Z,28.40
2019-06-07T14:21:37.329Z,28.50
2019-06-07T14:24:08.007Z,28.40
2019-06-07T14:26:38.602Z,28.40
2019-06-07T14:29:09.141Z,28.10
2019-06-07T14:31:39.814Z,28.30
2019-06-07T14:34:10.477Z,28.30
2019-06-07T14:36:41.108Z,28.30
2019-06-07T14:39:11.740Z,28.40
2019-06-07T14:41:42.367Z,28.30
2019-06-07T14:44:13.055Z,28.50
2019-06-07T14:46:43.805Z,28.60
2019-06-07T14:49:14.513Z,28.60
2019-06-07T14:51:45.069Z,28.50
2019-06-07T14:54:15.723Z,28.40
2019-06-07T14:56:46.938Z,28.50
2019-06-07T14:59:18.983Z,28.70
2019-06-07T15:01:49.661Z,28.90
2019-06-07T15:04:20.365Z,28.90
2019-06-07T15:06:50.936Z,28.90
2019-06-07T15:09:21.589Z,28.50
2019-06-07T15:11:52.249Z,28.80
2019-06-07T15:14:23.609Z,28.70
2019-06-07T15:16:54.183Z,28.70
2019-06-07T15:19:28.902Z,28.70
2019-06-07T15:21:59.668Z,28.60
2019-06-07T15:24:33.675Z,28.60
2019-06-07T15:27:02.669Z,28.50
2019-06-07T15:29:33.850Z,28.40
2019-06-07T15:32:05.071Z,28.40
2019-06-07T15:34:36.322Z,28.00
2019-06-07T15:37:06.994Z,28.20
2019-06-07T15:39:38.543Z,28.40
2019-06-07T15:42:09.545Z,27.90
2019-06-07T15:44:40.632Z,28.10
2019-06-07T15:47:11.208Z,28.30
2019-06-07T15:49:41.833Z,28.10
2019-06-07T15:52:12.466Z,28.10
2019-06-07T15:54:43.025Z,28.00
2019-06-07T15:57:13.666Z,28.00
2019-06-07T15:59:47.908Z,28.10
2019-06-07T16:02:18.471Z,28.00
2019-06-07T16:04:49.130Z,28.00
2019-06-07T16:07:20.427Z,28.10
2019-06-07T16:09:51.056Z,28.20
2019-06-07T16:12:22.276Z,28.00
2019-06-07T16:14:52.925Z,28.00
2019-06-07T16:17:23.527Z,27.80
2019-06-07T16:19:54.133Z,27.60
2019-06-07T16:22:24.976Z,27.50
2019-06-07T16:24:55.530Z,27.50
2019-06-07T16:27:26.227Z,27.10
2019-06-07T16:29:56.813Z,27.20
2019-06-07T16:32:27.455Z,27.10
2019-06-07T16:34:58.271Z,27.00
2019-06-07T16:37:28.931Z,26.90
2019-06-07T16:39:59.594Z,27.00
2019-06-07T16:42:30.258Z,27.00
2019-06-07T16:45:00.953Z,26.90
2019-06-07T16:47:31.454Z,26.90
2019-06-07T16:50:02.970Z,26.90
2019-06-07T16:52:33.567Z,26.80
2019-06-07T16:55:07.917Z,26.70
2019-06-07T16:57:38.747Z,26.70
2019-06-07T17:00:17.011Z,26.60
2019-06-07T17:02:49.024Z,26.30
2019-06-07T17:05:19.963Z,26.30
2019-06-07T17:07:50.521Z,26.20
2019-06-07T17:10:23.305Z,26.20
2019-06-07T17:12:53.961Z,26.10
2019-06-07T17:15:25.770Z,26.00
2019-06-07T17:17:57.016Z,26.00
2019-06-07T17:20:27.827Z,25.90
2019-06-07T17:22:58.807Z,25.90
2019-06-07T17:25:29.402Z,25.80
2019-06-07T17:27:59.903Z,25.90
2019-06-07T17:30:30.510Z,25.70
2019-06-07T17:33:01.055Z,25.70
2019-06-07T17:35:31.610Z,25.60
2019-06-07T17:38:02.287Z,25.60
2019-06-07T17:40:32.931Z,25.50
2019-06-07T17:43:04.489Z,25.40
2019-06-07T17:45:35.120Z,25.30
2019-06-07T17:48:06.551Z,25.20
2019-06-07T17:50:37.203Z,25.30
2019-06-07T17:53:07.973Z,25.20
2019-06-07T17:55:39.960Z,25.10
2019-06-07T17:58:10.538Z,25.30
2019-06-07T18:00:51.180Z,25.10
2019-06-07T18:03:23.155Z,25.00
2019-06-07T18:05:55.171Z,25.00
2019-06-07T18:08:29.006Z,24.90
2019-06-07T18:10:59.561Z,24.90
2019-06-07T18:13:31.572Z,24.80
2019-06-07T18:16:02.672Z,24.70
2019-06-07T18:18:33.712Z,24.60
2019-06-07T18:21:04.346Z,24.40
2019-06-07T18:23:35.018Z,24.30
2019-06-07T18:26:06.213Z,24.50
2019-06-07T18:28:36.852Z,24.50
2019-06-07T18:31:10.459Z,24.10
2019-06-07T18:33:40.992Z,24.30
2019-06-07T18:36:11.789Z,24.20
2019-06-07T18:38:44.065Z,24.20
2019-06-07T18:41:14.693Z,24.10
2019-06-07T18:43:45.140Z,24.00
2019-06-07T18:46:15.668Z,24.00
2019-06-07T18:48:46.434Z,23.90
2019-06-07T18:51:17.108Z,23.90
2019-06-07T18:53:47.674Z,23.70
2019-06-07T18:56:18.892Z,24.00
2019-06-07T18:58:49.436Z,23.70
2019-06-07T19:01:20.996Z,23.70
2019-06-07T19:03:52.125Z,23.70
2019-06-07T19:06:22.923Z,23.60
2019-06-07T19:08:55.531Z,23.50
2019-06-07T19:11:26.343Z,23.50
2019-06-07T19:13:57.192Z,23.50
2019-06-07T19:16:27.869Z,23.40
2019-06-07T19:18:59.854Z,23.40
2019-06-07T19:21:32.422Z,23.30
2019-06-07T19:24:03.511Z,23.30
2019-06-07T19:26:34.578Z,23.30
2019-06-07T19:29:05.228Z,23.20
2019-06-07T19:31:35.817Z,22.90
2019-06-07T19:34:06.571Z,23.00
2019-06-07T19:36:48.423Z,23.00
2019-06-07T19:39:09.539Z,22.80
2019-06-07T19:41:40.198Z,22.70
2019-06-07T19:44:10.829Z,22.70
2019-06-07T19:46:41.511Z,22.70
2019-06-07T19:49:12.120Z,22.50
2019-06-07T19:51:42.772Z,22.40
2019-06-07T19:54:13.415Z,22.30
2019-06-07T19:56:46.092Z,22.30
2019-06-07T19:59:16.720Z,22.20
2019-06-07T20:01:49.581Z,22.20
2019-06-07T20:04:23.455Z,22.10
2019-06-07T20:06:54.186Z,22.00
2019-06-07T20:09:26.428Z,22.10
2019-06-07T20:11:58.394Z,22.10
2019-06-07T20:14:30.094Z,21.90
2019-06-07T20:17:03.323Z,22.00
2019-06-07T20:19:34.315Z,22.00
2019-06-07T20:22:05.513Z,21.90
2019-06-07T20:24:38.178Z,21.90
2019-06-07T20:27:08.840Z,21.80
2019-06-07T20:29:39.454Z,21.80
2019-06-07T20:32:10.100Z,21.70
2019-06-07T20:34:44.509Z,21.70
2019-06-07T20:37:13.024Z,21.60
2019-06-07T20:39:43.655Z,21.60
2019-06-07T20:42:14.711Z,21.20
2019-06-07T20:44:45.263Z,21.50
2019-06-07T20:47:15.860Z,21.30
2019-06-07T20:49:46.363Z,21.40
2019-06-07T20:52:16.883Z,21.30
2019-06-07T20:54:48.348Z,21.20
2019-06-07T20:57:19.000Z,21.10
2019-06-07T20:59:50.124Z,21.30
2019-06-07T21:02:21.623Z,21.10
2019-06-07T21:04:53.289Z,21.00
2019-06-07T21:07:23.975Z,20.90
2019-06-07T21:09:56.099Z,21.00
2019-06-07T21:12:26.594Z,20.90
2019-06-07T21:14:57.225Z,20.90
2019-06-07T21:17:27.756Z,20.90
2019-06-07T21:19:58.417Z,20.60
2019-06-07T21:22:29.035Z,20.60
2019-06-07T21:25:00.691Z,20.70
2019-06-07T21:27:31.472Z,20.60
2019-06-07T21:30:03.402Z,20.40
2019-06-07T21:32:34.069Z,20.40
2019-06-07T21:35:08.034Z,20.40
2019-06-07T21:37:38.813Z,20.40
2019-06-07T21:40:10.454Z,20.30
2019-06-07T21:42:41.010Z,20.20
2019-06-07T21:45:13.538Z,20.10
2019-06-07T21:47:44.359Z,20.10
2019-06-07T21:50:15.201Z,20.10
2019-06-07T21:52:45.948Z,20.00
2019-06-07T21:55:16.585Z,20.00
2019-06-07T21:57:48.277Z,19.80
2019-06-07T22:00:21.839Z,19.90
2019-06-07T22:02:53.326Z,19.90
2019-06-07T22:11:06.099Z,19.80
2019-06-07T22:13:37.941Z,19.90
2019-06-07T22:16:23.330Z,19.90
2019-06-07T22:18:41.112Z,19.90
2019-06-07T22:21:12.721Z,20.00
2019-06-07T22:23:43.869Z,19.80
2019-06-07T22:26:15.585Z,19.70
2019-06-07T22:28:46.244Z,19.90
2019-06-07T22:31:16.842Z,19.50
2019-06-07T22:33:47.434Z,19.80
2019-06-07T22:36:19.371Z,19.60
2019-06-07T22:38:50.089Z,19.50
2019-06-07T22:41:20.802Z,19.70
2019-06-07T22:43:51.276Z,19.50
2019-06-07T22:46:36.536Z,19.50
2019-06-07T22:48:54.384Z,19.50
2019-06-07T22:51:25.635Z,19.40
2019-06-07T22:53:56.213Z,19.40
2019-06-07T22:56:28.318Z,19.40
2019-06-07T22:58:58.969Z,19.30
2019-06-07T23:01:29.562Z,19.40
2019-06-07T23:04:00.957Z,19.40
2019-06-07T23:06:31.522Z,19.40
2019-06-07T23:09:02.141Z,19.40
2019-06-07T23:11:32.637Z,19.30
2019-06-07T23:14:03.113Z,19.00
2019-06-07T23:16:33.643Z,19.20
2019-06-07T23:19:04.246Z,19.10
2019-06-07T23:21:34.886Z,19.00
2019-06-07T23:24:05.632Z,19.30
2019-06-07T23:26:36.181Z,19.00
2019-06-07T23:29:06.759Z,19.00
2019-06-07T23:31:37.383Z,19.00
2019-06-07T23:34:07.816Z,19.00
2019-06-07T23:36:38.437Z,19.00
2019-06-07T23:39:09.067Z,19.00
2019-06-07T23:41:39.546Z,18.90
2019-06-07T23:44:11.047Z,18.90
2019-06-07T23:46:41.855Z,18.80
2019-06-07T23:49:13.942Z,18.70
2019-06-07T23:51:44.666Z,18.70
2019-06-07T23:54:15.686Z,18.90
2019-06-07T23:56:46.323Z,18.80
2019-06-07T23:59:18.064Z,18.40
